sensor_id;sensor_type;location;lat;lon;timestamp;P1;durP1;ratioP1;P2;durP2;ratioP2
37455;SDS011;23316;50.718;7.328;2023-05-20T00:00:50;1.90;;;1.33;;
37455;SDS011;23316;50.718;7.328;2023-05-20T00:03:17;2.88;;;1.58;;
37455;SDS011;23316;50.718;7.328;2023-05-20T00:05:45;1.65;;;1.40;;
37455;SDS011;23316;50.718;7.328;2023-05-20T00:08:12;2.90;;;1.25;;
37455;SDS011;23316;50.718;7.328;2023-05-20T00:10:40;2.28;;;1.40;;
37455;SDS011;23316;50.718;7.328;2023-05-20T00:13:07;2.15;;;1.35;;
37455;SDS011;23316;50.718;7.328;2023-05-20T00:15:34;2.60;;;1.70;;
37455;SDS011;23316;50.718;7.328;2023-05-20T00:18:03;3.55;;;1.63;;
37455;SDS011;23316;50.718;7.328;2023-05-20T00:20:31;2.35;;;1.13;;
37455;SDS011;23316;50.718;7.328;2023-05-20T00:22:58;3.83;;;1.80;;
37455;SDS011;23316;50.718;7.328;2023-05-20T00:25:25;3.83;;;1.30;;
37455;SDS011;23316;50.718;7.328;2023-05-20T00:27:52;3.45;;;1.65;;
37455;SDS011;23316;50.718;7.328;2023-05-20T00:30:20;1.40;;;1.30;;
37455;SDS011;23316;50.718;7.328;2023-05-20T00:32:47;2.58;;;1.50;;
37455;SDS011;23316;50.718;7.328;2023-05-20T00:35:16;4.57;;;1.70;;
37455;SDS011;23316;50.718;7.328;2023-05-20T00:37:43;3.35;;;1.48;;
37455;SDS011;23316;50.718;7.328;2023-05-20T00:40:10;1.50;;;0.98;;
37455;SDS011;23316;50.718;7.328;2023-05-20T00:42:38;2.13;;;1.40;;
37455;SDS011;23316;50.718;7.328;2023-05-20T00:45:05;1.80;;;1.38;;
37455;SDS011;23316;50.718;7.328;2023-05-20T00:47:33;3.10;;;1.30;;
37455;SDS011;23316;50.718;7.328;2023-05-20T00:50:02;4.85;;;1.60;;
37455;SDS011;23316;50.718;7.328;2023-05-20T00:52:31;2.28;;;1.30;;
37455;SDS011;23316;50.718;7.328;2023-05-20T00:54:59;3.10;;;1.75;;
37455;SDS011;23316;50.718;7.328;2023-05-20T00:57:26;3.78;;;1.80;;
37455;SDS011;23316;50.718;7.328;2023-05-20T00:59:54;3.25;;;1.40;;
37455;SDS011;23316;50.718;7.328;2023-05-20T01:02:21;2.10;;;1.45;;
37455;SDS011;23316;50.718;7.328;2023-05-20T01:04:49;3.15;;;1.60;;
37455;SDS011;23316;50.718;7.328;2023-05-20T01:07:21;3.55;;;1.52;;
37455;SDS011;23316;50.718;7.328;2023-05-20T01:09:51;3.25;;;1.60;;
37455;SDS011;23316;50.718;7.328;2023-05-20T01:12:21;2.53;;;1.50;;
37455;SDS011;23316;50.718;7.328;2023-05-20T01:14:53;2.63;;;1.60;;
37455;SDS011;23316;50.718;7.328;2023-05-20T01:17:25;2.78;;;1.45;;
37455;SDS011;23316;50.718;7.328;2023-05-20T01:19:57;2.25;;;1.65;;
37455;SDS011;23316;50.718;7.328;2023-05-20T01:22:28;2.65;;;1.45;;
37455;SDS011;23316;50.718;7.328;2023-05-20T01:24:56;2.13;;;1.38;;
37455;SDS011;23316;50.718;7.328;2023-05-20T01:27:23;3.67;;;1.88;;
37455;SDS011;23316;50.718;7.328;2023-05-20T01:29:51;2.05;;;1.42;;
37455;SDS011;23316;50.718;7.328;2023-05-20T01:32:20;2.60;;;1.50;;
37455;SDS011;23316;50.718;7.328;2023-05-20T01:34:50;2.88;;;1.42;;
37455;SDS011;23316;50.718;7.328;2023-05-20T01:37:19;2.90;;;1.73;;
37455;SDS011;23316;50.718;7.328;2023-05-20T01:39:51;2.45;;;1.40;;
37455;SDS011;23316;50.718;7.328;2023-05-20T01:42:21;1.63;;;1.25;;
37455;SDS011;23316;50.718;7.328;2023-05-20T01:44:50;3.85;;;1.38;;
37455;SDS011;23316;50.718;7.328;2023-05-20T01:47:18;2.65;;;1.58;;
37455;SDS011;23316;50.718;7.328;2023-05-20T01:49:46;2.03;;;1.20;;
37455;SDS011;23316;50.718;7.328;2023-05-20T01:52:18;2.45;;;1.52;;
37455;SDS011;23316;50.718;7.328;2023-05-20T01:54:46;2.53;;;1.70;;
37455;SDS011;23316;50.718;7.328;2023-05-20T01:57:17;2.78;;;1.45;;
37455;SDS011;23316;50.718;7.328;2023-05-20T01:59:47;2.67;;;1.58;;
37455;SDS011;23316;50.718;7.328;2023-05-20T02:02:15;2.25;;;1.35;;
37455;SDS011;23316;50.718;7.328;2023-05-20T02:04:44;6.05;;;1.67;;
37455;SDS011;23316;50.718;7.328;2023-05-20T02:07:12;2.35;;;1.60;;
37455;SDS011;23316;50.718;7.328;2023-05-20T02:09:40;2.80;;;1.50;;
37455;SDS011;23316;50.718;7.328;2023-05-20T02:12:08;3.47;;;1.88;;
37455;SDS011;23316;50.718;7.328;2023-05-20T02:14:42;2.28;;;1.50;;
37455;SDS011;23316;50.718;7.328;2023-05-20T02:17:11;4.07;;;1.45;;
37455;SDS011;23316;50.718;7.328;2023-05-20T02:19:42;4.28;;;1.42;;
37455;SDS011;23316;50.718;7.328;2023-05-20T02:22:10;2.15;;;1.40;;
37455;SDS011;23316;50.718;7.328;2023-05-20T02:24:38;3.97;;;1.55;;
37455;SDS011;23316;50.718;7.328;2023-05-20T02:27:07;2.30;;;1.70;;
37455;SDS011;23316;50.718;7.328;2023-05-20T02:29:37;1.60;;;1.23;;
37455;SDS011;23316;50.718;7.328;2023-05-20T02:32:06;3.95;;;1.73;;
37455;SDS011;23316;50.718;7.328;2023-05-20T02:34:34;2.72;;;1.55;;
37455;SDS011;23316;50.718;7.328;2023-05-20T02:37:01;2.60;;;1.50;;
37455;SDS011;23316;50.718;7.328;2023-05-20T02:39:29;3.25;;;1.77;;
37455;SDS011;23316;50.718;7.328;2023-05-20T02:41:57;1.70;;;1.20;;
37455;SDS011;23316;50.718;7.328;2023-05-20T02:44:25;2.38;;;1.60;;
37455;SDS011;23316;50.718;7.328;2023-05-20T02:46:52;2.90;;;1.70;;
37455;SDS011;23316;50.718;7.328;2023-05-20T02:49:22;2.35;;;1.50;;
37455;SDS011;23316;50.718;7.328;2023-05-20T02:51:49;2.53;;;1.70;;
37455;SDS011;23316;50.718;7.328;2023-05-20T02:54:19;2.65;;;1.77;;
37455;SDS011;23316;50.718;7.328;2023-05-20T02:56:46;4.53;;;1.83;;
37455;SDS011;23316;50.718;7.328;2023-05-20T02:59:13;2.70;;;1.55;;
37455;SDS011;23316;50.718;7.328;2023-05-20T03:01:41;2.00;;;1.63;;
37455;SDS011;23316;50.718;7.328;2023-05-20T03:04:09;1.58;;;1.27;;
37455;SDS011;23316;50.718;7.328;2023-05-20T03:06:38;2.80;;;1.70;;
37455;SDS011;23316;50.718;7.328;2023-05-20T03:09:08;3.00;;;1.60;;
37455;SDS011;23316;50.718;7.328;2023-05-20T03:11:36;3.15;;;1.40;;
37455;SDS011;23316;50.718;7.328;2023-05-20T03:14:03;3.13;;;1.63;;
37455;SDS011;23316;50.718;7.328;2023-05-20T03:16:31;4.82;;;1.80;;
37455;SDS011;23316;50.718;7.328;2023-05-20T03:18:59;2.97;;;1.40;;
37455;SDS011;23316;50.718;7.328;2023-05-20T03:21:27;2.67;;;1.70;;
37455;SDS011;23316;50.718;7.328;2023-05-20T03:23:56;2.75;;;1.40;;
37455;SDS011;23316;50.718;7.328;2023-05-20T03:26:23;2.42;;;1.52;;
37455;SDS011;23316;50.718;7.328;2023-05-20T03:28:51;3.47;;;1.70;;
37455;SDS011;23316;50.718;7.328;2023-05-20T03:31:18;3.05;;;1.90;;
37455;SDS011;23316;50.718;7.328;2023-05-20T03:33:49;2.42;;;1.58;;
37455;SDS011;23316;50.718;7.328;2023-05-20T03:36:16;2.53;;;1.70;;
37455;SDS011;23316;50.718;7.328;2023-05-20T03:38:46;3.15;;;1.60;;
37455;SDS011;23316;50.718;7.328;2023-05-20T03:41:15;4.05;;;1.88;;
37455;SDS011;23316;50.718;7.328;2023-05-20T03:43:43;3.83;;;2.10;;
37455;SDS011;23316;50.718;7.328;2023-05-20T03:46:11;2.67;;;1.60;;
37455;SDS011;23316;50.718;7.328;2023-05-20T03:48:39;2.00;;;1.50;;
37455;SDS011;23316;50.718;7.328;2023-05-20T03:51:06;3.28;;;1.30;;
37455;SDS011;23316;50.718;7.328;2023-05-20T03:53:34;4.30;;;1.92;;
37455;SDS011;23316;50.718;7.328;2023-05-20T03:56:02;3.30;;;1.83;;
37455;SDS011;23316;50.718;7.328;2023-05-20T03:58:31;3.65;;;1.65;;
37455;SDS011;23316;50.718;7.328;2023-05-20T04:00:59;2.42;;;1.70;;
37455;SDS011;23316;50.718;7.328;2023-05-20T04:03:27;2.30;;;1.55;;
37455;SDS011;23316;50.718;7.328;2023-05-20T04:05:54;3.67;;;2.28;;
37455;SDS011;23316;50.718;7.328;2023-05-20T04:08:22;2.92;;;2.05;;
37455;SDS011;23316;50.718;7.328;2023-05-20T04:10:54;4.18;;;2.10;;
37455;SDS011;23316;50.718;7.328;2023-05-20T04:13:23;4.72;;;1.77;;
37455;SDS011;23316;50.718;7.328;2023-05-20T04:15:52;2.58;;;1.95;;
37455;SDS011;23316;50.718;7.328;2023-05-20T04:18:20;2.42;;;1.70;;
37455;SDS011;23316;50.718;7.328;2023-05-20T04:20:48;2.17;;;1.70;;
37455;SDS011;23316;50.718;7.328;2023-05-20T04:23:15;3.55;;;1.73;;
37455;SDS011;23316;50.718;7.328;2023-05-20T04:25:43;3.90;;;2.22;;
37455;SDS011;23316;50.718;7.328;2023-05-20T04:28:11;31.75;;;12.70;;
37455;SDS011;23316;50.718;7.328;2023-05-20T04:30:40;14.23;;;6.95;;
37455;SDS011;23316;50.718;7.328;2023-05-20T04:33:11;7.53;;;3.70;;
37455;SDS011;23316;50.718;7.328;2023-05-20T04:35:39;5.45;;;2.47;;
37455;SDS011;23316;50.718;7.328;2023-05-20T04:38:07;3.63;;;2.10;;
37455;SDS011;23316;50.718;7.328;2023-05-20T04:40:34;5.22;;;2.47;;
37455;SDS011;23316;50.718;7.328;2023-05-20T04:43:02;2.22;;;1.65;;
37455;SDS011;23316;50.718;7.328;2023-05-20T04:45:29;3.53;;;1.85;;
37455;SDS011;23316;50.718;7.328;2023-05-20T04:47:57;3.00;;;2.20;;
37455;SDS011;23316;50.718;7.328;2023-05-20T04:50:26;5.38;;;2.03;;
37455;SDS011;23316;50.718;7.328;2023-05-20T04:52:54;2.65;;;1.80;;
37455;SDS011;23316;50.718;7.328;2023-05-20T04:55:22;5.07;;;2.30;;
37455;SDS011;23316;50.718;7.328;2023-05-20T04:57:52;3.95;;;2.00;;
37455;SDS011;23316;50.718;7.328;2023-05-20T05:00:19;3.97;;;1.88;;
37455;SDS011;23316;50.718;7.328;2023-05-20T05:02:48;2.75;;;2.08;;
37455;SDS011;23316;50.718;7.328;2023-05-20T05:05:16;3.42;;;2.20;;
37455;SDS011;23316;50.718;7.328;2023-05-20T05:07:45;3.45;;;1.95;;
37455;SDS011;23316;50.718;7.328;2023-05-20T05:10:13;4.25;;;2.33;;
37455;SDS011;23316;50.718;7.328;2023-05-20T05:12:40;5.72;;;2.35;;
37455;SDS011;23316;50.718;7.328;2023-05-20T05:15:08;4.32;;;2.42;;
37455;SDS011;23316;50.718;7.328;2023-05-20T05:17:39;5.32;;;2.50;;
37455;SDS011;23316;50.718;7.328;2023-05-20T05:20:09;2.60;;;2.00;;
37455;SDS011;23316;50.718;7.328;2023-05-20T05:22:37;3.80;;;2.30;;
37455;SDS011;23316;50.718;7.328;2023-05-20T05:25:08;3.42;;;2.20;;
37455;SDS011;23316;50.718;7.328;2023-05-20T05:27:36;6.00;;;2.17;;
37455;SDS011;23316;50.718;7.328;2023-05-20T05:30:04;5.00;;;2.72;;
37455;SDS011;23316;50.718;7.328;2023-05-20T05:32:33;4.47;;;2.47;;
37455;SDS011;23316;50.718;7.328;2023-05-20T05:35:02;6.45;;;2.25;;
37455;SDS011;23316;50.718;7.328;2023-05-20T05:37:31;3.55;;;2.00;;
37455;SDS011;23316;50.718;7.328;2023-05-20T05:39:58;5.53;;;2.60;;
37455;SDS011;23316;50.718;7.328;2023-05-20T05:42:27;6.28;;;2.50;;
37455;SDS011;23316;50.718;7.328;2023-05-20T05:44:55;3.92;;;2.22;;
37455;SDS011;23316;50.718;7.328;2023-05-20T05:47:22;4.90;;;2.40;;
37455;SDS011;23316;50.718;7.328;2023-05-20T05:49:54;3.65;;;2.40;;
37455;SDS011;23316;50.718;7.328;2023-05-20T05:52:35;6.20;;;2.83;;
37455;SDS011;23316;50.718;7.328;2023-05-20T05:55:33;4.55;;;2.33;;
37455;SDS011;23316;50.718;7.328;2023-05-20T05:58:19;2.92;;;2.17;;
37455;SDS011;23316;50.718;7.328;2023-05-20T06:00:49;3.67;;;2.33;;
37455;SDS011;23316;50.718;7.328;2023-05-20T06:03:27;4.53;;;2.30;;
37455;SDS011;23316;50.718;7.328;2023-05-20T06:06:03;3.90;;;2.33;;
37455;SDS011;23316;50.718;7.328;2023-05-20T06:08:37;3.95;;;2.40;;
37455;SDS011;23316;50.718;7.328;2023-05-20T06:11:05;3.67;;;2.00;;
37455;SDS011;23316;50.718;7.328;2023-05-20T06:13:45;4.03;;;2.50;;
37455;SDS011;23316;50.718;7.328;2023-05-20T06:16:19;4.20;;;2.30;;
37455;SDS011;23316;50.718;7.328;2023-05-20T06:18:47;5.15;;;2.30;;
37455;SDS011;23316;50.718;7.328;2023-05-20T06:21:16;5.65;;;3.15;;
37455;SDS011;23316;50.718;7.328;2023-05-20T06:23:45;4.05;;;2.30;;
37455;SDS011;23316;50.718;7.328;2023-05-20T06:26:51;4.20;;;2.05;;
37455;SDS011;23316;50.718;7.328;2023-05-20T06:29:29;5.20;;;2.50;;
37455;SDS011;23316;50.718;7.328;2023-05-20T06:32:01;2.35;;;2.08;;
37455;SDS011;23316;50.718;7.328;2023-05-20T06:34:35;3.25;;;2.22;;
37455;SDS011;23316;50.718;7.328;2023-05-20T06:37:09;4.22;;;2.58;;
37455;SDS011;23316;50.718;7.328;2023-05-20T06:39:55;5.82;;;2.25;;
37455;SDS011;23316;50.718;7.328;2023-05-20T06:42:30;3.70;;;2.10;;
37455;SDS011;23316;50.718;7.328;2023-05-20T06:45:20;4.00;;;2.57;;
37455;SDS011;23316;50.718;7.328;2023-05-20T06:47:50;2.97;;;2.35;;
37455;SDS011;23316;50.718;7.328;2023-05-20T06:50:25;3.72;;;2.33;;
37455;SDS011;23316;50.718;7.328;2023-05-20T06:53:16;3.10;;;2.35;;
37455;SDS011;23316;50.718;7.328;2023-05-20T06:55:47;3.88;;;2.22;;
37455;SDS011;23316;50.718;7.328;2023-05-20T06:58:20;4.60;;;2.35;;
37455;SDS011;23316;50.718;7.328;2023-05-20T07:01:03;4.20;;;2.40;;
37455;SDS011;23316;50.718;7.328;2023-05-20T07:03:35;3.38;;;2.30;;
37455;SDS011;23316;50.718;7.328;2023-05-20T07:06:06;3.90;;;2.30;;
37455;SDS011;23316;50.718;7.328;2023-05-20T07:08:49;5.00;;;2.65;;
37455;SDS011;23316;50.718;7.328;2023-05-20T07:11:17;3.83;;;2.22;;
37455;SDS011;23316;50.718;7.328;2023-05-20T07:13:46;4.03;;;2.13;;
37455;SDS011;23316;50.718;7.328;2023-05-20T07:16:15;4.72;;;2.38;;
37455;SDS011;23316;50.718;7.328;2023-05-20T07:18:42;6.90;;;2.53;;
37455;SDS011;23316;50.718;7.328;2023-05-20T07:21:10;3.58;;;2.40;;
37455;SDS011;23316;50.718;7.328;2023-05-20T07:23:37;4.10;;;2.50;;
37455;SDS011;23316;50.718;7.328;2023-05-20T07:26:04;4.88;;;2.55;;
37455;SDS011;23316;50.718;7.328;2023-05-20T07:28:31;4.10;;;2.85;;
37455;SDS011;23316;50.718;7.328;2023-05-20T07:31:00;4.05;;;2.40;;
37455;SDS011;23316;50.718;7.328;2023-05-20T07:33:29;5.60;;;2.80;;
37455;SDS011;23316;50.718;7.328;2023-05-20T07:35:57;3.67;;;2.20;;
37455;SDS011;23316;50.718;7.328;2023-05-20T07:38:24;3.25;;;2.38;;
37455;SDS011;23316;50.718;7.328;2023-05-20T07:40:51;3.40;;;2.30;;
37455;SDS011;23316;50.718;7.328;2023-05-20T07:43:19;5.68;;;2.58;;
37455;SDS011;23316;50.718;7.328;2023-05-20T07:45:46;3.90;;;2.33;;
37455;SDS011;23316;50.718;7.328;2023-05-20T07:48:13;4.18;;;2.92;;
37455;SDS011;23316;50.718;7.328;2023-05-20T07:50:42;6.05;;;2.95;;
37455;SDS011;23316;50.718;7.328;2023-05-20T07:53:10;4.22;;;2.50;;
37455;SDS011;23316;50.718;7.328;2023-05-20T07:55:37;3.40;;;2.35;;
37455;SDS011;23316;50.718;7.328;2023-05-20T07:58:04;4.30;;;2.63;;
37455;SDS011;23316;50.718;7.328;2023-05-20T08:00:32;6.38;;;2.40;;
37455;SDS011;23316;50.718;7.328;2023-05-20T08:02:59;4.28;;;2.60;;
37455;SDS011;23316;50.718;7.328;2023-05-20T08:05:26;6.15;;;2.53;;
37455;SDS011;23316;50.718;7.328;2023-05-20T08:07:55;4.85;;;2.83;;
37455;SDS011;23316;50.718;7.328;2023-05-20T08:10:22;6.47;;;3.20;;
37455;SDS011;23316;50.718;7.328;2023-05-20T08:12:49;3.60;;;3.03;;
37455;SDS011;23316;50.718;7.328;2023-05-20T08:15:17;4.28;;;2.85;;
37455;SDS011;23316;50.718;7.328;2023-05-20T08:17:44;5.22;;;2.90;;
37455;SDS011;23316;50.718;7.328;2023-05-20T08:20:11;4.85;;;2.63;;
37455;SDS011;23316;50.718;7.328;2023-05-20T08:22:39;4.90;;;2.67;;
37455;SDS011;23316;50.718;7.328;2023-05-20T08:25:08;12.23;;;2.53;;
37455;SDS011;23316;50.718;7.328;2023-05-20T08:27:35;4.05;;;2.90;;
37455;SDS011;23316;50.718;7.328;2023-05-20T08:30:03;3.75;;;2.50;;
37455;SDS011;23316;50.718;7.328;2023-05-20T08:32:32;4.07;;;2.63;;
37455;SDS011;23316;50.718;7.328;2023-05-20T08:34:59;5.03;;;3.30;;
37455;SDS011;23316;50.718;7.328;2023-05-20T08:37:27;3.60;;;2.78;;
37455;SDS011;23316;50.718;7.328;2023-05-20T08:39:54;8.88;;;2.70;;
37455;SDS011;23316;50.718;7.328;2023-05-20T08:42:23;4.10;;;2.50;;
37455;SDS011;23316;50.718;7.328;2023-05-20T08:44:51;4.55;;;2.85;;
37455;SDS011;23316;50.718;7.328;2023-05-20T08:47:19;5.72;;;2.75;;
37455;SDS011;23316;50.718;7.328;2023-05-20T08:49:47;4.70;;;2.63;;
37455;SDS011;23316;50.718;7.328;2023-05-20T08:52:15;4.63;;;2.88;;
37455;SDS011;23316;50.718;7.328;2023-05-20T08:54:44;3.65;;;2.47;;
37455;SDS011;23316;50.718;7.328;2023-05-20T08:57:13;3.92;;;2.63;;
37455;SDS011;23316;50.718;7.328;2023-05-20T08:59:42;4.88;;;2.85;;
37455;SDS011;23316;50.718;7.328;2023-05-20T09:02:11;4.00;;;2.78;;
37455;SDS011;23316;50.718;7.328;2023-05-20T09:04:38;4.65;;;2.90;;
37455;SDS011;23316;50.718;7.328;2023-05-20T09:07:05;3.85;;;2.75;;
37455;SDS011;23316;50.718;7.328;2023-05-20T09:09:33;3.80;;;2.58;;
37455;SDS011;23316;50.718;7.328;2023-05-20T09:12:01;4.03;;;2.67;;
37455;SDS011;23316;50.718;7.328;2023-05-20T09:14:29;5.15;;;2.50;;
37455;SDS011;23316;50.718;7.328;2023-05-20T09:16:58;3.67;;;2.15;;
37455;SDS011;23316;50.718;7.328;2023-05-20T09:19:25;4.50;;;2.78;;
37455;SDS011;23316;50.718;7.328;2023-05-20T09:21:52;4.60;;;2.53;;
37455;SDS011;23316;50.718;7.328;2023-05-20T09:24:23;3.70;;;2.75;;
37455;SDS011;23316;50.718;7.328;2023-05-20T09:26:51;3.88;;;2.90;;
37455;SDS011;23316;50.718;7.328;2023-05-20T09:29:19;6.22;;;2.72;;
37455;SDS011;23316;50.718;7.328;2023-05-20T09:31:46;3.70;;;2.47;;
37455;SDS011;23316;50.718;7.328;2023-05-20T09:34:15;4.13;;;2.35;;
37455;SDS011;23316;50.718;7.328;2023-05-20T09:36:43;7.30;;;2.83;;
37455;SDS011;23316;50.718;7.328;2023-05-20T09:39:11;4.65;;;2.70;;
37455;SDS011;23316;50.718;7.328;2023-05-20T09:41:45;4.68;;;3.10;;
37455;SDS011;23316;50.718;7.328;2023-05-20T09:44:19;9.98;;;2.88;;
37455;SDS011;23316;50.718;7.328;2023-05-20T09:46:47;5.88;;;3.70;;
37455;SDS011;23316;50.718;7.328;2023-05-20T09:49:18;5.28;;;3.10;;
37455;SDS011;23316;50.718;7.328;2023-05-20T09:51:47;4.53;;;2.85;;
37455;SDS011;23316;50.718;7.328;2023-05-20T09:54:16;6.25;;;3.40;;
37455;SDS011;23316;50.718;7.328;2023-05-20T09:56:45;4.32;;;3.17;;
37455;SDS011;23316;50.718;7.328;2023-05-20T09:59:12;4.45;;;2.88;;
37455;SDS011;23316;50.718;7.328;2023-05-20T10:01:41;5.38;;;3.15;;
37455;SDS011;23316;50.718;7.328;2023-05-20T10:04:09;5.70;;;3.42;;
37455;SDS011;23316;50.718;7.328;2023-05-20T10:06:45;5.78;;;3.38;;
37455;SDS011;23316;50.718;7.328;2023-05-20T10:09:30;5.72;;;3.70;;
37455;SDS011;23316;50.718;7.328;2023-05-20T10:12:10;4.07;;;3.17;;
37455;SDS011;23316;50.718;7.328;2023-05-20T10:14:49;4.93;;;2.97;;
37455;SDS011;23316;50.718;7.328;2023-05-20T10:17:24;7.57;;;3.38;;
37455;SDS011;23316;50.718;7.328;2023-05-20T10:19:57;5.43;;;3.25;;
37455;SDS011;23316;50.718;7.328;2023-05-20T10:22:27;3.75;;;3.22;;
37455;SDS011;23316;50.718;7.328;2023-05-20T10:24:59;3.72;;;3.33;;
37455;SDS011;23316;50.718;7.328;2023-05-20T10:27:40;5.93;;;3.60;;
37455;SDS011;23316;50.718;7.328;2023-05-20T10:30:14;5.47;;;2.85;;
37455;SDS011;23316;50.718;7.328;2023-05-20T10:32:47;7.22;;;3.13;;
37455;SDS011;23316;50.718;7.328;2023-05-20T10:35:20;6.47;;;3.63;;
37455;SDS011;23316;50.718;7.328;2023-05-20T10:37:52;4.63;;;3.22;;
37455;SDS011;23316;50.718;7.328;2023-05-20T10:40:20;10.05;;;3.58;;
37455;SDS011;23316;50.718;7.328;2023-05-20T10:42:48;5.50;;;3.17;;
37455;SDS011;23316;50.718;7.328;2023-05-20T10:45:25;9.70;;;3.15;;
37455;SDS011;23316;50.718;7.328;2023-05-20T10:47:53;4.90;;;3.35;;
37455;SDS011;23316;50.718;7.328;2023-05-20T10:50:25;4.15;;;3.30;;
37455;SDS011;23316;50.718;7.328;2023-05-20T10:52:55;5.00;;;3.40;;
37455;SDS011;23316;50.718;7.328;2023-05-20T10:55:34;5.18;;;3.88;;
37455;SDS011;23316;50.718;7.328;2023-05-20T10:58:02;5.82;;;3.90;;
37455;SDS011;23316;50.718;7.328;2023-05-20T11:00:30;5.45;;;3.70;;
37455;SDS011;23316;50.718;7.328;2023-05-20T11:02:57;5.07;;;3.80;;
37455;SDS011;23316;50.718;7.328;2023-05-20T11:05:26;5.32;;;3.63;;
37455;SDS011;23316;50.718;7.328;2023-05-20T11:08:01;4.18;;;3.50;;
37455;SDS011;23316;50.718;7.328;2023-05-20T11:10:29;3.60;;;3.10;;
37455;SDS011;23316;50.718;7.328;2023-05-20T11:12:56;4.90;;;3.15;;
37455;SDS011;23316;50.718;7.328;2023-05-20T11:15:23;5.20;;;3.88;;
37455;SDS011;23316;50.718;7.328;2023-05-20T11:17:51;5.60;;;3.60;;
37455;SDS011;23316;50.718;7.328;2023-05-20T11:20:19;5.10;;;3.60;;
37455;SDS011;23316;50.718;7.328;2023-05-20T11:22:48;6.15;;;3.78;;
37455;SDS011;23316;50.718;7.328;2023-05-20T11:25:17;4.57;;;3.60;;
37455;SDS011;23316;50.718;7.328;2023-05-20T11:27:45;5.45;;;3.58;;
37455;SDS011;23316;50.718;7.328;2023-05-20T11:30:12;5.93;;;3.88;;
37455;SDS011;23316;50.718;7.328;2023-05-20T11:32:41;5.18;;;3.80;;
37455;SDS011;23316;50.718;7.328;2023-05-20T11:35:18;5.35;;;3.60;;
37455;SDS011;23316;50.718;7.328;2023-05-20T11:37:52;5.15;;;3.55;;
37455;SDS011;23316;50.718;7.328;2023-05-20T11:40:26;8.07;;;4.10;;
37455;SDS011;23316;50.718;7.328;2023-05-20T11:42:53;5.63;;;3.80;;
37455;SDS011;23316;50.718;7.328;2023-05-20T11:45:22;4.28;;;3.33;;
37455;SDS011;23316;50.718;7.328;2023-05-20T11:47:58;4.40;;;3.38;;
37455;SDS011;23316;50.718;7.328;2023-05-20T11:50:27;6.50;;;3.90;;
37455;SDS011;23316;50.718;7.328;2023-05-20T11:52:56;5.85;;;3.15;;
37455;SDS011;23316;50.718;7.328;2023-05-20T11:55:25;5.93;;;3.40;;
37455;SDS011;23316;50.718;7.328;2023-05-20T11:57:53;5.20;;;3.47;;
37455;SDS011;23316;50.718;7.328;2023-05-20T12:00:21;4.97;;;3.55;;
37455;SDS011;23316;50.718;7.328;2023-05-20T12:02:49;5.05;;;3.50;;
37455;SDS011;23316;50.718;7.328;2023-05-20T12:05:16;5.32;;;3.58;;
37455;SDS011;23316;50.718;7.328;2023-05-20T12:07:43;5.28;;;3.95;;
37455;SDS011;23316;50.718;7.328;2023-05-20T12:10:11;6.18;;;3.50;;
37455;SDS011;23316;50.718;7.328;2023-05-20T12:12:40;7.93;;;4.00;;
37455;SDS011;23316;50.718;7.328;2023-05-20T12:15:10;5.85;;;3.78;;
37455;SDS011;23316;50.718;7.328;2023-05-20T12:17:44;4.80;;;3.28;;
37455;SDS011;23316;50.718;7.328;2023-05-20T12:20:13;6.05;;;3.55;;
37455;SDS011;23316;50.718;7.328;2023-05-20T12:22:42;4.82;;;3.47;;
37455;SDS011;23316;50.718;7.328;2023-05-20T12:25:10;5.25;;;3.80;;
37455;SDS011;23316;50.718;7.328;2023-05-20T12:27:41;5.18;;;3.60;;
37455;SDS011;23316;50.718;7.328;2023-05-20T12:33:34;5.05;;;3.30;;
37455;SDS011;23316;50.718;7.328;2023-05-20T12:36:01;4.45;;;3.10;;
37455;SDS011;23316;50.718;7.328;2023-05-20T12:38:29;5.30;;;3.10;;
37455;SDS011;23316;50.718;7.328;2023-05-20T12:40:56;8.38;;;4.05;;
37455;SDS011;23316;50.718;7.328;2023-05-20T12:43:24;4.03;;;3.47;;
37455;SDS011;23316;50.718;7.328;2023-05-20T12:45:52;5.90;;;3.75;;
37455;SDS011;23316;50.718;7.328;2023-05-20T12:48:19;5.45;;;3.72;;
37455;SDS011;23316;50.718;7.328;2023-05-20T12:50:46;5.45;;;3.88;;
37455;SDS011;23316;50.718;7.328;2023-05-20T12:53:14;3.70;;;3.15;;
37455;SDS011;23316;50.718;7.328;2023-05-20T12:55:41;5.43;;;3.70;;
37455;SDS011;23316;50.718;7.328;2023-05-20T12:58:08;4.80;;;3.65;;
37455;SDS011;23316;50.718;7.328;2023-05-20T13:00:37;5.25;;;3.70;;
37455;SDS011;23316;50.718;7.328;2023-05-20T13:03:04;4.10;;;3.30;;
37455;SDS011;23316;50.718;7.328;2023-05-20T13:05:31;5.13;;;3.60;;
37455;SDS011;23316;50.718;7.328;2023-05-20T13:07:59;5.32;;;3.65;;
37455;SDS011;23316;50.718;7.328;2023-05-20T13:10:26;5.07;;;3.72;;
37455;SDS011;23316;50.718;7.328;2023-05-20T13:12:55;5.25;;;3.58;;
37455;SDS011;23316;50.718;7.328;2023-05-20T13:15:22;5.22;;;3.65;;
37455;SDS011;23316;50.718;7.328;2023-05-20T13:17:51;5.28;;;3.88;;
37455;SDS011;23316;50.718;7.328;2023-05-20T13:20:18;6.32;;;4.20;;
37455;SDS011;23316;50.718;7.328;2023-05-20T13:22:46;5.40;;;4.47;;
37455;SDS011;23316;50.718;7.328;2023-05-20T13:25:14;5.60;;;3.72;;
37455;SDS011;23316;50.718;7.328;2023-05-20T13:27:41;5.07;;;3.58;;
37455;SDS011;23316;50.718;7.328;2023-05-20T13:30:09;6.70;;;3.40;;
37455;SDS011;23316;50.718;7.328;2023-05-20T13:32:37;4.50;;;3.88;;
37455;SDS011;23316;50.718;7.328;2023-05-20T13:35:06;5.45;;;3.67;;
37455;SDS011;23316;50.718;7.328;2023-05-20T13:37:34;6.30;;;4.13;;
37455;SDS011;23316;50.718;7.328;2023-05-20T13:40:01;4.95;;;3.88;;
37455;SDS011;23316;50.718;7.328;2023-05-20T13:42:28;6.35;;;3.78;;
37455;SDS011;23316;50.718;7.328;2023-05-20T13:44:55;6.32;;;4.43;;
37455;SDS011;23316;50.718;7.328;2023-05-20T13:47:22;6.10;;;4.07;;
37455;SDS011;23316;50.718;7.328;2023-05-20T13:49:50;7.03;;;4.43;;
37455;SDS011;23316;50.718;7.328;2023-05-20T13:52:18;7.82;;;4.88;;
37455;SDS011;23316;50.718;7.328;2023-05-20T13:54:46;7.07;;;4.28;;
37455;SDS011;23316;50.718;7.328;2023-05-20T13:57:13;7.38;;;4.70;;
37455;SDS011;23316;50.718;7.328;2023-05-20T13:59:40;5.13;;;4.00;;
37455;SDS011;23316;50.718;7.328;2023-05-20T14:02:07;6.47;;;4.20;;
37455;SDS011;23316;50.718;7.328;2023-05-20T14:04:35;7.45;;;4.40;;
37455;SDS011;23316;50.718;7.328;2023-05-20T14:07:03;11.73;;;4.72;;
37455;SDS011;23316;50.718;7.328;2023-05-20T14:09:32;9.43;;;5.00;;
37455;SDS011;23316;50.718;7.328;2023-05-20T14:12:00;7.35;;;4.40;;
37455;SDS011;23316;50.718;7.328;2023-05-20T14:14:27;6.95;;;4.43;;
37455;SDS011;23316;50.718;7.328;2023-05-20T14:16:54;5.30;;;4.30;;
37455;SDS011;23316;50.718;7.328;2023-05-20T14:19:21;4.85;;;3.92;;
37455;SDS011;23316;50.718;7.328;2023-05-20T14:21:48;5.70;;;4.25;;
37455;SDS011;23316;50.718;7.328;2023-05-20T14:24:16;6.22;;;4.68;;
37455;SDS011;23316;50.718;7.328;2023-05-20T14:26:44;5.90;;;4.47;;
37455;SDS011;23316;50.718;7.328;2023-05-20T14:29:11;6.40;;;4.20;;
37455;SDS011;23316;50.718;7.328;2023-05-20T14:31:39;8.85;;;4.57;;
37455;SDS011;23316;50.718;7.328;2023-05-20T14:34:07;9.25;;;5.05;;
37455;SDS011;23316;50.718;7.328;2023-05-20T14:36:34;6.82;;;4.18;;
37455;SDS011;23316;50.718;7.328;2023-05-20T14:39:01;6.38;;;4.60;;
37455;SDS011;23316;50.718;7.328;2023-05-20T14:41:28;5.22;;;4.35;;
37455;SDS011;23316;50.718;7.328;2023-05-20T14:43:57;5.32;;;4.40;;
37455;SDS011;23316;50.718;7.328;2023-05-20T14:46:25;7.32;;;4.20;;
37455;SDS011;23316;50.718;7.328;2023-05-20T14:48:52;5.40;;;4.25;;
37455;SDS011;23316;50.718;7.328;2023-05-20T14:51:19;8.63;;;4.47;;
37455;SDS011;23316;50.718;7.328;2023-05-20T14:53:46;6.03;;;4.22;;
37455;SDS011;23316;50.718;7.328;2023-05-20T14:56:13;8.43;;;4.65;;
37455;SDS011;23316;50.718;7.328;2023-05-20T14:58:41;7.85;;;4.63;;
37455;SDS011;23316;50.718;7.328;2023-05-20T15:01:09;6.88;;;4.60;;
37455;SDS011;23316;50.718;7.328;2023-05-20T15:03:36;5.85;;;4.47;;